sensor_id;sensor_type;location;lat;lon;timestamp;pressure;altitude;pressure_sealevel;temperature;humidity
15694;BME280;7947;48.834;9.132;2022-10-17T00:02:49;98723.03;;;13.92;99.41
15694;BME280;7947;48.834;9.132;2022-10-17T00:05:52;98718.97;;;13.94;99.34
15694;BME280;7947;48.834;9.132;2022-10-17T00:08:55;98726.25;;;13.94;99.61
15694;BME280;7947;48.834;9.132;2022-10-17T00:11:58;98716.84;;;13.91;99.52
15694;BME280;7947;48.834;9.132;2022-10-17T00:15:04;98723.03;;;13.92;99.94
15694;BME280;7947;48.834;9.132;2022-10-17T00:18:10;98723.56;;;13.94;100.00
15694;BME280;7947;48.834;9.132;2022-10-17T00:21:17;98739.47;;;13.95;99.39
15694;BME280;7947;48.834;9.132;2022-10-17T00:24:20;98743.59;;;13.88;98.74
15694;BME280;7947;48.834;9.132;2022-10-17T00:27:24;98741.97;;;13.87;98.26
15694;BME280;7947;48.834;9.132;2022-10-17T00:30:28;98744.13;;;13.85;98.46
15694;BME280;7947;48.834;9.132;2022-10-17T00:33:32;98745.25;;;13.79;98.47
15694;BME280;7947;48.834;9.132;2022-10-17T00:36:36;98744.19;;;13.75;98.45
15694;BME280;7947;48.834;9.132;2022-10-17T00:39:39;98746.13;;;13.69;98.65
15694;BME280;7947;48.834;9.132;2022-10-17T00:42:41;98740.53;;;13.61;98.97
15694;BME280;7947;48.834;9.132;2022-10-17T00:45:44;98745.38;;;13.58;99.14
15694;BME280;7947;48.834;9.132;2022-10-17T00:48:50;98745.91;;;13.61;98.96
15694;BME280;7947;48.834;9.132;2022-10-17T00:51:55;98739.72;;;13.55;98.47
15694;BME280;7947;48.834;9.132;2022-10-17T00:55:02;98745.66;;;13.57;98.51
15694;BME280;7947;48.834;9.132;2022-10-17T00:58:07;98738.91;;;13.59;98.54
15694;BME280;7947;48.834;9.132;2022-10-17T01:01:11;98743.53;;;13.54;98.96
15694;BME280;7947;48.834;9.132;2022-10-17T01:04:15;98734.66;;;13.48;98.96
15694;BME280;7947;48.834;9.132;2022-10-17T01:07:19;98748.94;;;13.49;99.44
15694;BME280;7947;48.834;9.132;2022-10-17T01:10:24;98750.03;;;13.48;99.24
15694;BME280;7947;48.834;9.132;2022-10-17T01:13:36;98749.22;;;13.47;99.34
15694;BME280;7947;48.834;9.132;2022-10-17T01:16:44;98744.63;;;13.48;98.25
15694;BME280;7947;48.834;9.132;2022-10-17T01:20:28;98745.75;;;13.42;98.49
15694;BME280;7947;48.834;9.132;2022-10-17T01:27:28;98744.13;;;13.41;98.83
15694;BME280;7947;48.834;9.132;2022-10-17T01:30:56;98741.69;;;13.39;98.84
15694;BME280;7947;48.834;9.132;2022-10-17T01:34:04;98741.44;;;13.41;98.75
15694;BME280;7947;48.834;9.132;2022-10-17T01:37:15;98746.31;;;13.39;99.28
15694;BME280;7947;48.834;9.132;2022-10-17T01:40:24;98741.97;;;13.38;99.23
15694;BME280;7947;48.834;9.132;2022-10-17T01:43:36;98744.69;;;13.38;99.10
15694;BME280;7947;48.834;9.132;2022-10-17T01:46:45;98744.44;;;13.34;99.22
15694;BME280;7947;48.834;9.132;2022-10-17T01:49:56;98738.00;;;13.30;99.19
15694;BME280;7947;48.834;9.132;2022-10-17T01:53:05;98741.78;;;13.24;99.08
15694;BME280;7947;48.834;9.132;2022-10-17T01:56:12;98738.03;;;13.20;99.02
15694;BME280;7947;48.834;9.132;2022-10-17T01:59:18;98734.81;;;13.23;98.74
15694;BME280;7947;48.834;9.132;2022-10-17T02:02:25;98732.91;;;13.24;99.06
15694;BME280;7947;48.834;9.132;2022-10-17T02:05:32;98728.63;;;13.18;98.53
15694;BME280;7947;48.834;9.132;2022-10-17T02:08:42;98729.41;;;13.18;98.38
15694;BME280;7947;48.834;9.132;2022-10-17T02:12:07;98731.88;;;13.15;98.90
15694;BME280;7947;48.834;9.132;2022-10-17T02:15:24;98737.53;;;13.13;98.65
15694;BME280;7947;48.834;9.132;2022-10-17T02:18:45;98722.19;;;13.14;98.64
15694;BME280;7947;48.834;9.132;2022-10-17T02:21:52;98738.34;;;13.14;99.22
15694;BME280;7947;48.834;9.132;2022-10-17T02:25:07;98729.75;;;13.12;98.95
15694;BME280;7947;48.834;9.132;2022-10-17T02:28:18;98729.16;;;13.15;99.53
15694;BME280;7947;48.834;9.132;2022-10-17T02:31:25;98737.25;;;13.20;100.00
15694;BME280;7947;48.834;9.132;2022-10-17T02:34:34;98729.69;;;13.22;100.00
15694;BME280;7947;48.834;9.132;2022-10-17T02:37:40;98734.50;;;13.25;100.00
15694;BME280;7947;48.834;9.132;2022-10-17T02:40:45;98742.31;;;13.26;100.00
15694;BME280;7947;48.834;9.132;2022-10-17T02:43:49;98741.81;;;13.19;100.00
15694;BME280;7947;48.834;9.132;2022-10-17T02:47:05;98742.34;;;13.16;99.83
15694;BME280;7947;48.834;9.132;2022-10-17T02:50:12;98736.72;;;13.13;99.36
15694;BME280;7947;48.834;9.132;2022-10-17T02:53:20;98748.06;;;13.10;98.17
15694;BME280;7947;48.834;9.132;2022-10-17T02:56:26;98741.84;;;13.09;98.18
15694;BME280;7947;48.834;9.132;2022-10-17T02:59:32;98741.31;;;13.07;98.23
15694;BME280;7947;48.834;9.132;2022-10-17T03:02:39;98743.47;;;13.10;99.05
15694;BME280;7947;48.834;9.132;2022-10-17T03:05:44;98734.56;;;13.15;99.49
15694;BME280;7947;48.834;9.132;2022-10-17T03:08:47;98740.50;;;13.12;99.79
15694;BME280;7947;48.834;9.132;2022-10-17T03:11:50;98734.84;;;13.13;99.93
15694;BME280;7947;48.834;9.132;2022-10-17T03:14:53;98740.50;;;13.12;99.92
15694;BME280;7947;48.834;9.132;2022-10-17T03:17:56;98735.13;;;13.07;99.55
15694;BME280;7947;48.834;9.132;2022-10-17T03:21:00;98745.38;;;13.10;100.00
15694;BME280;7947;48.834;9.132;2022-10-17T03:24:04;98745.66;;;13.08;100.00
15694;BME280;7947;48.834;9.132;2022-10-17T03:27:09;98744.03;;;13.02;100.00
15694;BME280;7947;48.834;9.132;2022-10-17T03:30:12;98756.66;;;13.02;99.60
15694;BME280;7947;48.834;9.132;2022-10-17T03:33:15;98751.03;;;13.03;98.54
15694;BME280;7947;48.834;9.132;2022-10-17T03:36:20;98756.69;;;12.92;98.48
15694;BME280;7947;48.834;9.132;2022-10-17T03:39:23;98760.75;;;12.84;98.07
15694;BME280;7947;48.834;9.132;2022-10-17T03:42:26;98751.09;;;12.78;97.71
15694;BME280;7947;48.834;9.132;2022-10-17T03:45:29;98758.91;;;12.75;98.01
15694;BME280;7947;48.834;9.132;2022-10-17T03:48:32;98756.50;;;12.73;98.58
15694;BME280;7947;48.834;9.132;2022-10-17T03:51:40;98754.84;;;12.72;98.59
15694;BME280;7947;48.834;9.132;2022-10-17T03:54:43;98760.78;;;12.74;97.56
15694;BME280;7947;48.834;9.132;2022-10-17T03:57:47;98759.72;;;12.70;97.24
15694;BME280;7947;48.834;9.132;2022-10-17T04:00:50;98764.56;;;12.73;97.54
15694;BME280;7947;48.834;9.132;2022-10-17T04:03:55;98756.50;;;12.73;98.00
15694;BME280;7947;48.834;9.132;2022-10-17T04:06:59;98763.47;;;12.74;98.13
15694;BME280;7947;48.834;9.132;2022-10-17T04:10:02;98784.22;;;12.74;97.75
15694;BME280;7947;48.834;9.132;2022-10-17T04:13:05;98781.53;;;12.74;98.34
15694;BME280;7947;48.834;9.132;2022-10-17T04:16:11;98783.41;;;12.73;98.72
15694;BME280;7947;48.834;9.132;2022-10-17T04:19:14;98786.63;;;12.75;99.05
15694;BME280;7947;48.834;9.132;2022-10-17T04:22:19;98785.00;;;12.74;99.50
15694;BME280;7947;48.834;9.132;2022-10-17T04:25:21;98788.25;;;12.71;99.54
15694;BME280;7947;48.834;9.132;2022-10-17T04:28:25;98794.97;;;12.74;99.57
15694;BME280;7947;48.834;9.132;2022-10-17T04:31:28;98801.97;;;12.75;98.99
15694;BME280;7947;48.834;9.132;2022-10-17T04:34:31;98797.41;;;12.65;99.13
15694;BME280;7947;48.834;9.132;2022-10-17T04:37:36;98802.00;;;12.59;98.91
15694;BME280;7947;48.834;9.132;2022-10-17T04:40:39;98800.63;;;12.62;98.96
15694;BME280;7947;48.834;9.132;2022-10-17T04:43:43;98809.78;;;12.61;99.01
15694;BME280;7947;48.834;9.132;2022-10-17T04:46:51;98802.50;;;12.56;99.17
15694;BME280;7947;48.834;9.132;2022-10-17T04:49:54;98803.06;;;12.53;98.98
15694;BME280;7947;48.834;9.132;2022-10-17T04:52:58;98803.06;;;12.53;98.80
15694;BME280;7947;48.834;9.132;2022-10-17T04:56:07;98797.97;;;12.52;99.28
15694;BME280;7947;48.834;9.132;2022-10-17T04:59:10;98795.78;;;12.49;98.90
15694;BME280;7947;48.834;9.132;2022-10-17T05:02:12;98807.94;;;12.46;98.96
15694;BME280;7947;48.834;9.132;2022-10-17T05:05:15;98806.84;;;12.42;98.59
15694;BME280;7947;48.834;9.132;2022-10-17T05:08:20;98811.41;;;12.42;98.96
15694;BME280;7947;48.834;9.132;2022-10-17T05:11:25;98809.00;;;12.40;98.92
15694;BME280;7947;48.834;9.132;2022-10-17T05:14:28;98806.84;;;12.42;98.95
15694;BME280;7947;48.834;9.132;2022-10-17T05:17:30;98798.25;;;12.40;99.60
15694;BME280;7947;48.834;9.132;2022-10-17T05:20:33;98797.97;;;12.42;98.93
15694;BME280;7947;48.834;9.132;2022-10-17T05:23:37;98801.72;;;12.41;99.60
15694;BME280;7947;48.834;9.132;2022-10-17T05:26:40;98802.53;;;12.41;99.27
15694;BME280;7947;48.834;9.132;2022-10-17T05:29:43;98794.19;;;12.38;99.39
15694;BME280;7947;48.834;9.132;2022-10-17T05:32:46;98795.78;;;12.39;99.40
15694;BME280;7947;48.834;9.132;2022-10-17T05:35:50;98791.22;;;12.39;99.57
15694;BME280;7947;48.834;9.132;2022-10-17T05:38:54;98802.53;;;12.41;99.41
15694;BME280;7947;48.834;9.132;2022-10-17T05:41:56;98805.47;;;12.45;100.00
15694;BME280;7947;48.834;9.132;2022-10-17T05:44:59;98809.53;;;12.47;100.00
15694;BME280;7947;48.834;9.132;2022-10-17T05:48:03;98807.63;;;12.53;100.00
15694;BME280;7947;48.834;9.132;2022-10-17T05:51:08;98803.59;;;12.55;100.00
15694;BME280;7947;48.834;9.132;2022-10-17T05:54:12;98808.44;;;12.63;100.00
15694;BME280;7947;48.834;9.132;2022-10-17T05:57:15;98815.41;;;12.75;100.00
15694;BME280;7947;48.834;9.132;2022-10-17T06:00:18;98825.09;;;12.91;100.00
15694;BME280;7947;48.834;9.132;2022-10-17T06:03:22;98817.75;;;13.21;100.00
15694;BME280;7947;48.834;9.132;2022-10-17T06:06:25;98815.41;;;13.64;100.00
15694;BME280;7947;48.834;9.132;2022-10-17T06:09:29;98817.19;;;14.32;99.12
15694;BME280;7947;48.834;9.132;2022-10-17T06:12:32;98812.75;;;15.27;95.42
15694;BME280;7947;48.834;9.132;2022-10-17T06:15:35;98813.78;;;16.29;90.73
15694;BME280;7947;48.834;9.132;2022-10-17T06:18:38;98812.13;;;17.11;84.18
15694;BME280;7947;48.834;9.132;2022-10-17T06:21:41;98819.88;;;17.58;80.64
15694;BME280;7947;48.834;9.132;2022-10-17T06:24:45;98812.31;;;17.82;78.36
15694;BME280;7947;48.834;9.132;2022-10-17T06:27:48;98818.59;;;17.91;76.75
15694;BME280;7947;48.834;9.132;2022-10-17T06:30:50;98823.06;;;18.23;76.84
15694;BME280;7947;48.834;9.132;2022-10-17T06:33:53;98819.06;;;18.65;75.03
15694;BME280;7947;48.834;9.132;2022-10-17T06:36:56;98815.19;;;18.88;73.28
15694;BME280;7947;48.834;9.132;2022-10-17T06:40:01;98828.50;;;18.45;74.07
15694;BME280;7947;48.834;9.132;2022-10-17T06:43:04;98839.91;;;17.98;75.92
15694;BME280;7947;48.834;9.132;2022-10-17T06:46:08;98850.47;;;17.45;78.09
15694;BME280;7947;48.834;9.132;2022-10-17T06:49:11;98858.38;;;17.01;79.74
15694;BME280;7947;48.834;9.132;2022-10-17T06:52:14;98864.19;;;16.62;81.96
15694;BME280;7947;48.834;9.132;2022-10-17T06:55:19;98874.72;;;16.26;84.28
15694;BME280;7947;48.834;9.132;2022-10-17T06:58:23;98876.09;;;16.05;85.92
15694;BME280;7947;48.834;9.132;2022-10-17T07:01:26;98883.56;;;15.95;86.85
15694;BME280;7947;48.834;9.132;2022-10-17T07:04:30;98881.34;;;15.78;87.59
15694;BME280;7947;48.834;9.132;2022-10-17T07:07:33;98884.16;;;15.68;88.44
15694;BME280;7947;48.834;9.132;2022-10-17T07:10:43;98888.00;;;15.62;89.06
15694;BME280;7947;48.834;9.132;2022-10-17T07:13:46;98896.13;;;15.62;90.42
15694;BME280;7947;48.834;9.132;2022-10-17T07:16:49;98895.59;;;15.60;91.25
15694;BME280;7947;48.834;9.132;2022-10-17T07:19:52;98895.06;;;15.63;91.88
15694;BME280;7947;48.834;9.132;2022-10-17T07:22:55;98899.13;;;15.61;92.03
15694;BME280;7947;48.834;9.132;2022-10-17T07:26:00;98904.25;;;15.62;92.56
15694;BME280;7947;48.834;9.132;2022-10-17T07:29:04;98893.69;;;15.66;93.00
15694;BME280;7947;48.834;9.132;2022-10-17T07:32:07;98897.69;;;15.68;93.15
15694;BME280;7947;48.834;9.132;2022-10-17T07:35:11;98900.13;;;15.70;93.42
15694;BME280;7947;48.834;9.132;2022-10-17T07:38:13;98904.34;;;15.76;93.48
15694;BME280;7947;48.834;9.132;2022-10-17T07:41:18;98906.72;;;15.82;93.16
15694;BME280;7947;48.834;9.132;2022-10-17T07:44:25;98902.84;;;15.88;93.30
15694;BME280;7947;48.834;9.132;2022-10-17T07:47:29;98906.50;;;15.97;93.29
15694;BME280;7947;48.834;9.132;2022-10-17T07:50:36;98918.03;;;16.08;93.11
15694;BME280;7947;48.834;9.132;2022-10-17T07:53:39;98912.22;;;16.14;92.86
15694;BME280;7947;48.834;9.132;2022-10-17T07:56:50;98910.50;;;16.23;92.97
15694;BME280;7947;48.834;9.132;2022-10-17T07:59:53;98917.97;;;16.32;92.44
15694;BME280;7947;48.834;9.132;2022-10-17T08:02:56;98916.78;;;16.38;92.23
15694;BME280;7947;48.834;9.132;2022-10-17T08:05:59;98922.34;;;16.46;92.47
15694;BME280;7947;48.834;9.132;2022-10-17T08:09:03;98920.34;;;16.57;91.60
15694;BME280;7947;48.834;9.132;2022-10-17T08:12:07;98914.47;;;16.68;91.04
15694;BME280;7947;48.834;9.132;2022-10-17T08:15:10;98911.31;;;16.80;92.19
15694;BME280;7947;48.834;9.132;2022-10-17T08:18:13;98910.03;;;16.91;92.35
15694;BME280;7947;48.834;9.132;2022-10-17T08:21:16;98914.47;;;17.00;92.33
15694;BME280;7947;48.834;9.132;2022-10-17T08:24:19;98915.38;;;17.09;91.48
15694;BME280;7947;48.834;9.132;2022-10-17T08:27:24;98917.13;;;17.19;91.11
15694;BME280;7947;48.834;9.132;2022-10-17T08:30:28;98912.63;;;17.28;91.02
15694;BME280;7947;48.834;9.132;2022-10-17T08:33:31;98917.06;;;17.38;90.07
15694;BME280;7947;48.834;9.132;2022-10-17T08:36:34;98921.31;;;17.44;89.67
15694;BME280;7947;48.834;9.132;2022-10-17T08:39:37;98930.06;;;17.54;89.52
15694;BME280;7947;48.834;9.132;2022-10-17T08:43:15;98924.97;;;17.66;88.10
15694;BME280;7947;48.834;9.132;2022-10-17T08:46:28;98920.03;;;17.82;87.61
15694;BME280;7947;48.834;9.132;2022-10-17T08:49:38;98925.25;;;17.92;87.71
15694;BME280;7947;48.834;9.132;2022-10-17T08:52:46;98926.97;;;18.01;86.11
15694;BME280;7947;48.834;9.132;2022-10-17T08:55:52;98922.41;;;18.11;86.17
15694;BME280;7947;48.834;9.132;2022-10-17T08:58:57;98925.91;;;18.25;84.85
15694;BME280;7947;48.834;9.132;2022-10-17T09:02:03;98922.97;;;18.35;85.18
15694;BME280;7947;48.834;9.132;2022-10-17T09:05:36;98926.97;;;18.51;85.44
15694;BME280;7947;48.834;9.132;2022-10-17T09:08:49;98927.13;;;18.68;84.82
15694;BME280;7947;48.834;9.132;2022-10-17T09:12:04;98921.63;;;18.81;82.66
15694;BME280;7947;48.834;9.132;2022-10-17T09:15:28;98912.81;;;18.98;82.22
15694;BME280;7947;48.834;9.132;2022-10-17T09:18:35;98923.91;;;19.10;81.77
15694;BME280;7947;48.834;9.132;2022-10-17T09:21:42;98920.91;;;19.20;81.34
15694;BME280;7947;48.834;9.132;2022-10-17T09:24:49;98921.34;;;19.36;81.29
15694;BME280;7947;48.834;9.132;2022-10-17T09:28:01;98921.25;;;19.49;79.30
15694;BME280;7947;48.834;9.132;2022-10-17T09:31:11;98919.13;;;19.68;75.87
15694;BME280;7947;48.834;9.132;2022-10-17T09:34:15;98922.50;;;19.74;76.95
15694;BME280;7947;48.834;9.132;2022-10-17T09:37:29;98934.88;;;19.89;75.56
15694;BME280;7947;48.834;9.132;2022-10-17T09:40:33;98922.13;;;20.06;77.48
15694;BME280;7947;48.834;9.132;2022-10-17T09:43:38;98921.22;;;20.28;77.46
15694;BME280;7947;48.834;9.132;2022-10-17T09:46:51;98920.31;;;20.49;76.09
15694;BME280;7947;48.834;9.132;2022-10-17T09:49:55;98923.03;;;20.66;76.16
15694;BME280;7947;48.834;9.132;2022-10-17T09:53:02;98914.19;;;20.78;75.13
15694;BME280;7947;48.834;9.132;2022-10-17T09:56:11;98917.56;;;20.92;74.70
15694;BME280;7947;48.834;9.132;2022-10-17T09:59:29;98921.91;;;21.02;72.57
15694;BME280;7947;48.834;9.132;2022-10-17T10:02:34;98917.06;;;21.16;72.36
15694;BME280;7947;48.834;9.132;2022-10-17T10:05:44;98921.69;;;21.32;70.94
15694;BME280;7947;48.834;9.132;2022-10-17T10:08:59;98911.72;;;21.36;71.00
15694;BME280;7947;48.834;9.132;2022-10-17T10:12:05;98915.22;;;21.37;70.58
15694;BME280;7947;48.834;9.132;2022-10-17T10:15:35;98919.25;;;21.39;72.14
15694;BME280;7947;48.834;9.132;2022-10-17T10:18:42;98922.13;;;21.43;71.83
15694;BME280;7947;48.834;9.132;2022-10-17T10:21:54;98925.03;;;21.46;72.88
15694;BME280;7947;48.834;9.132;2022-10-17T10:25:07;98923.69;;;21.52;72.24
15694;BME280;7947;48.834;9.132;2022-10-17T10:28:10;98919.50;;;21.64;71.20
15694;BME280;7947;48.834;9.132;2022-10-17T10:31:13;98932.94;;;21.69;71.15
15694;BME280;7947;48.834;9.132;2022-10-17T10:34:20;98927.78;;;21.76;71.17
15694;BME280;7947;48.834;9.132;2022-10-17T10:37:26;98925.84;;;21.85;72.01
15694;BME280;7947;48.834;9.132;2022-10-17T10:40:35;98922.44;;;21.88;71.60
15694;BME280;7947;48.834;9.132;2022-10-17T10:43:41;98915.81;;;21.97;70.54
15694;BME280;7947;48.834;9.132;2022-10-17T10:46:44;98923.97;;;22.06;69.32
15694;BME280;7947;48.834;9.132;2022-10-17T10:49:52;98925.38;;;22.12;68.78
15694;BME280;7947;48.834;9.132;2022-10-17T10:53:07;98927.91;;;22.17;67.63
15694;BME280;7947;48.834;9.132;2022-10-17T10:56:16;98912.81;;;22.19;65.59
15694;BME280;7947;48.834;9.132;2022-10-17T10:59:23;98923.66;;;22.28;66.27
15694;BME280;7947;48.834;9.132;2022-10-17T11:02:33;98917.41;;;22.48;61.29
15694;BME280;7947;48.834;9.132;2022-10-17T11:05:42;98916.19;;;22.66;61.63
15694;BME280;7947;48.834;9.132;2022-10-17T11:08:48;98923.78;;;22.81;63.37
15694;BME280;7947;48.834;9.132;2022-10-17T11:11:57;98914.34;;;22.91;62.48
15694;BME280;7947;48.834;9.132;2022-10-17T11:15:08;98908.47;;;23.01;57.23
15694;BME280;7947;48.834;9.132;2022-10-17T11:18:21;98911.09;;;23.09;56.38
15694;BME280;7947;48.834;9.132;2022-10-17T11:21:34;98907.75;;;23.24;53.10
15694;BME280;7947;48.834;9.132;2022-10-17T11:24:42;98903.97;;;23.29;53.66
15694;BME280;7947;48.834;9.132;2022-10-17T11:27:46;98901.84;;;23.35;53.86
15694;BME280;7947;48.834;9.132;2022-10-17T11:30:52;98901.31;;;23.41;56.90
15694;BME280;7947;48.834;9.132;2022-10-17T11:33:59;98903.03;;;23.46;55.30
15694;BME280;7947;48.834;9.132;2022-10-17T11:37:12;98895.50;;;23.55;51.78
15694;BME280;7947;48.834;9.132;2022-10-17T11:40:20;98892.09;;;23.70;51.36
15694;BME280;7947;48.834;9.132;2022-10-17T11:43:35;98890.72;;;23.76;50.63
15694;BME280;7947;48.834;9.132;2022-10-17T11:46:41;98888.91;;;23.92;48.48
15694;BME280;7947;48.834;9.132;2022-10-17T11:49:50;98895.53;;;24.03;47.92
15694;BME280;7947;48.834;9.132;2022-10-17T11:53:00;98897.47;;;24.14;47.80
15694;BME280;7947;48.834;9.132;2022-10-17T11:56:05;98897.81;;;24.25;47.41
15694;BME280;7947;48.834;9.132;2022-10-17T11:59:30;98905.66;;;24.39;47.74
15694;BME280;7947;48.834;9.132;2022-10-17T12:02:46;98903.22;;;24.49;46.83
15694;BME280;7947;48.834;9.132;2022-10-17T12:05:56;98901.25;;;24.62;48.65
15694;BME280;7947;48.834;9.132;2022-10-17T12:09:06;98896.09;;;24.72;47.90
15694;BME280;7947;48.834;9.132;2022-10-17T12:12:23;98901.09;;;24.82;47.49
15694;BME280;7947;48.834;9.132;2022-10-17T12:15:29;98900.34;;;24.97;49.21
15694;BME280;7947;48.834;9.132;2022-10-17T12:18:32;98894.78;;;25.10;47.53
15694;BME280;7947;48.834;9.132;2022-10-17T12:21:53;98901.22;;;25.29;46.86
15694;BME280;7947;48.834;9.132;2022-10-17T12:24:59;98889.19;;;25.34;46.73
15694;BME280;7947;48.834;9.132;2022-10-17T12:28:14;98888.88;;;25.51;46.37
15694;BME280;7947;48.834;9.132;2022-10-17T12:31:21;98875.72;;;25.60;45.58
15694;BME280;7947;48.834;9.132;2022-10-17T12:34:33;98888.59;;;25.71;46.52
15694;BME280;7947;48.834;9.132;2022-10-17T12:41:13;98886.19;;;25.85;47.08
15694;BME280;7947;48.834;9.132;2022-10-17T12:44:34;98893.97;;;25.99;45.42
15694;BME280;7947;48.834;9.132;2022-10-17T12:47:38;98885.53;;;26.08;46.05
15694;BME280;7947;48.834;9.132;2022-10-17T12:51:02;98888.47;;;26.15;48.44
15694;BME280;7947;48.834;9.132;2022-10-17T12:54:25;98895.63;;;26.04;54.12
15694;BME280;7947;48.834;9.132;2022-10-17T12:57:34;98894.78;;;25.84;55.23
15694;BME280;7947;48.834;9.132;2022-10-17T13:00:43;98906.41;;;25.62;56.83
15694;BME280;7947;48.834;9.132;2022-10-17T13:04:09;98911.81;;;25.43;56.55
15694;BME280;7947;48.834;9.132;2022-10-17T13:07:17;98910.84;;;25.23;56.27
15694;BME280;7947;48.834;9.132;2022-10-17T13:10:23;98924.19;;;25.09;56.82
15694;BME280;7947;48.834;9.132;2022-10-17T13:13:38;98920.25;;;24.94;57.16
15694;BME280;7947;48.834;9.132;2022-10-17T13:16:50;98929.69;;;24.81;56.58
15694;BME280;7947;48.834;9.132;2022-10-17T13:19:54;98926.16;;;24.69;57.57
15694;BME280;7947;48.834;9.132;2022-10-17T13:22:58;98936.47;;;24.60;55.95
15694;BME280;7947;48.834;9.132;2022-10-17T13:26:10;98941.41;;;24.54;55.99
15694;BME280;7947;48.834;9.132;2022-10-17T13:29:15;98932.59;;;24.49;55.41
15694;BME280;7947;48.834;9.132;2022-10-17T13:32:19;98939.03;;;24.41;55.63
15694;BME280;7947;48.834;9.132;2022-10-17T13:35:26;98939.72;;;24.26;56.38
15694;BME280;7947;48.834;9.132;2022-10-17T13:38:50;98946.59;;;24.20;55.79
15694;BME280;7947;48.834;9.132;2022-10-17T13:41:54;98942.94;;;24.15;55.83
15694;BME280;7947;48.834;9.132;2022-10-17T13:44:59;98945.31;;;24.05;56.37
15694;BME280;7947;48.834;9.132;2022-10-17T13:48:07;98949.69;;;24.06;54.17
15694;BME280;7947;48.834;9.132;2022-10-17T13:51:17;98952.84;;;23.96;54.07
15694;BME280;7947;48.834;9.132;2022-10-17T13:54:39;98953.41;;;23.89;54.09
15694;BME280;7947;48.834;9.132;2022-10-17T13:57:43;98957.06;;;23.93;52.78
15694;BME280;7947;48.834;9.132;2022-10-17T14:00:47;98953.56;;;24.05;52.56
15694;BME280;7947;48.834;9.132;2022-10-17T14:03:51;98960.81;;;23.89;52.81
15694;BME280;7947;48.834;9.132;2022-10-17T14:07:24;98949.97;;;23.68;53.45
15694;BME280;7947;48.834;9.132;2022-10-17T14:10:33;98952.47;;;23.61;54.38
15694;BME280;7947;48.834;9.132;2022-10-17T14:13:37;98954.50;;;23.64;54.50
15694;BME280;7947;48.834;9.132;2022-10-17T14:16:42;98952.94;;;23.87;53.28
15694;BME280;7947;48.834;9.132;2022-10-17T14:19:50;98954.88;;;23.99;53.35
15694;BME280;7947;48.834;9.132;2022-10-17T14:23:35;98959.16;;;24.21;53.11
15694;BME280;7947;48.834;9.132;2022-10-17T14:26:46;98950.97;;;24.72;52.00
15694;BME280;7947;48.834;9.132;2022-10-17T14:29:51;98956.03;;;24.58;52.11
15694;BME280;7947;48.834;9.132;2022-10-17T14:32:58;98949.44;;;24.23;53.54
15694;BME280;7947;48.834;9.132;2022-10-17T14:36:04;98953.50;;;23.93;54.39
15694;BME280;7947;48.834;9.132;2022-10-17T14:39:14;98960.00;;;23.64;54.35
15694;BME280;7947;48.834;9.132;2022-10-17T14:42:21;98957.53;;;23.39;55.17
15694;BME280;7947;48.834;9.132;2022-10-17T14:45:27;98957.22;;;23.19;55.73
15694;BME280;7947;48.834;9.132;2022-10-17T14:48:32;98959.78;;;23.04;56.23
15694;BME280;7947;48.834;9.132;2022-10-17T14:51:35;98961.53;;;22.88;58.12
15694;BME280;7947;48.834;9.132;2022-10-17T14:54:58;98951.47;;;22.80;58.34
15694;BME280;7947;48.834;9.132;2022-10-17T14:58:15;98958.66;;;22.64;59.37
15694;BME280;7947;48.834;9.132;2022-10-17T15:01:18;98959.69;;;22.51;59.48
15694;BME280;7947;48.834;9.132;2022-10-17T15:04:22;98962.00;;;22.40;61.34
15694;BME280;7947;48.834;9.132;2022-10-17T15:07:25;98963.28;;;22.42;63.67
15694;BME280;7947;48.834;9.132;2022-10-17T15:10:32;98958.88;;;22.29;62.04
15694;BME280;7947;48.834;9.132;2022-10-17T15:13:35;98960.72;;;22.17;64.16
15694;BME280;7947;48.834;9.132;2022-10-17T15:16:45;98962.69;;;22.08;65.95
15694;BME280;7947;48.834;9.132;2022-10-17T15:19:50;98970.44;;;21.97;68.77
15694;BME280;7947;48.834;9.132;2022-10-17T15:22:53;98963.56;;;21.91;69.26
15694;BME280;7947;48.834;9.132;2022-10-17T15:25:56;98964.72;;;21.82;69.49
15694;BME280;7947;48.834;9.132;2022-10-17T15:28:59;98963.59;;;21.74;71.82
15694;BME280;7947;48.834;9.132;2022-10-17T15:32:02;98968.78;;;21.67;71.52
15694;BME280;7947;48.834;9.132;2022-10-17T15:35:07;98964.16;;;21.59;72.74
15694;BME280;7947;48.834;9.132;2022-10-17T15:38:10;98967.38;;;21.52;74.55
15694;BME280;7947;48.834;9.132;2022-10-17T15:41:17;98971.56;;;21.41;75.50
15694;BME280;7947;48.834;9.132;2022-10-17T15:44:21;98975.44;;;21.32;76.81
15694;BME280;7947;48.834;9.132;2022-10-17T15:47:26;98967.44;;;21.18;77.36
15694;BME280;7947;48.834;9.132;2022-10-17T15:50:33;98979.00;;;21.07;77.88
15694;BME280;7947;48.834;9.132;2022-10-17T15:53:36;98973.06;;;20.96;77.83
15694;BME280;7947;48.834;9.132;2022-10-17T15:56:40;98975.63;;;20.84;77.63
15694;BME280;7947;48.834;9.132;2022-10-17T15:59:44;98983.97;;;20.71;78.91
15694;BME280;7947;48.834;9.132;2022-10-17T16:02:49;98995.34;;;20.55;79.93
15694;BME280;7947;48.834;9.132;2022-10-17T16:05:53;98992.75;;;20.42;80.75
15694;BME280;7947;48.834;9.132;2022-10-17T16:08:56;98993.34;;;20.30;81.77
15694;BME280;7947;48.834;9.132;2022-10-17T16:12:00;98998.41;;;20.15;81.64
15694;BME280;7947;48.834;9.132;2022-10-17T16:15:04;98998.03;;;19.99;82.13
15694;BME280;7947;48.834;9.132;2022-10-17T16:18:08;99009.19;;;19.89;82.64
15694;BME280;7947;48.834;9.132;2022-10-17T16:21:13;99004.47;;;19.72;83.15
15694;BME280;7947;48.834;9.132;2022-10-17T16:24:17;99008.72;;;19.56;83.36
15694;BME280;7947;48.834;9.132;2022-10-17T16:27:20;99010.56;;;19.47;84.13
15694;BME280;7947;48.834;9.132;2022-10-17T16:30:24;99015.47;;;19.37;84.51
15694;BME280;7947;48.834;9.132;2022-10-17T16:33:27;99011.66;;;19.24;84.78
15694;BME280;7947;48.834;9.132;2022-10-17T16:36:33;99018.16;;;19.15;84.86
15694;BME280;7947;48.834;9.132;2022-10-17T16:39:36;99019.00;;;19.02;85.19
15694;BME280;7947;48.834;9.132;2022-10-17T16:42:39;99014.13;;;18.90;85.63
15694;BME280;7947;48.834;9.132;2022-10-17T16:45:42;99016.25;;;18.79;86.25
15694;BME280;7947;48.834;9.132;2022-10-17T16:48:45;99025.94;;;18.72;86.57
15694;BME280;7947;48.834;9.132;2022-10-17T16:51:51;99035.13;;;18.62;86.45